createdAt,value
2023-08-19T00:00:27.256Z,22.33
2023-08-19T00:01:00.416Z,22.32
2023-08-19T00:01:35.333Z,22.32
2023-08-19T00:02:08.051Z,22.30
2023-08-19T00:02:40.667Z,22.29
2023-08-19T00:03:13.239Z,22.29
2023-08-19T00:03:45.897Z,22.28
2023-08-19T00:04:18.440Z,22.27
2023-08-19T00:04:50.959Z,22.26
2023-08-19T00:05:23.455Z,22.25
2023-08-19T00:05:55.937Z,22.25
2023-08-19T00:06:37.764Z,22.24
2023-08-19T00:07:10.265Z,22.23
2023-08-19T00:07:42.759Z,22.23
2023-08-19T00:08:15.242Z,22.22
2023-08-19T00:08:47.744Z,22.22
2023-08-19T00:09:20.231Z,22.21
2023-08-19T00:09:52.704Z,22.20
2023-08-19T00:10:25.259Z,22.19
2023-08-19T00:10:57.773Z,22.19
2023-08-19T00:11:30.676Z,22.18
2023-08-19T00:12:03.971Z,22.17
2023-08-19T00:12:36.508Z,22.17
2023-08-19T00:13:09.098Z,22.16
2023-08-19T00:13:41.599Z,22.16
2023-08-19T00:14:14.181Z,22.15
2023-08-19T00:14:48.911Z,22.15
2023-08-19T00:15:21.432Z,22.14
2023-08-19T00:15:54.134Z,22.13
2023-08-19T00:16:26.655Z,22.13
2023-08-19T00:16:59.338Z,22.12
2023-08-19T00:17:32.119Z,22.12
2023-08-19T00:18:05.442Z,22.11
2023-08-19T00:18:37.986Z,22.10
2023-08-19T00:19:10.610Z,22.10
2023-08-19T00:19:43.178Z,22.09
2023-08-19T00:20:15.686Z,22.09
2023-08-19T00:20:48.800Z,22.08
2023-08-19T00:21:21.390Z,22.08
2023-08-19T00:21:53.899Z,22.07
2023-08-19T00:22:26.378Z,22.06
2023-08-19T00:22:59.339Z,22.06
2023-08-19T00:23:32.201Z,22.05
2023-08-19T00:24:05.095Z,22.05
2023-08-19T00:24:37.608Z,22.04
2023-08-19T00:25:10.409Z,22.04
2023-08-19T00:25:42.990Z,22.03
2023-08-19T00:26:15.749Z,22.02
2023-08-19T00:26:48.262Z,22.02
2023-08-19T00:27:20.778Z,22.01
2023-08-19T00:27:54.091Z,22.01
2023-08-19T00:28:26.809Z,22.00
2023-08-19T00:28:59.424Z,22.00
2023-08-19T00:29:31.963Z,21.99
2023-08-19T00:30:04.646Z,21.99
2023-08-19T00:30:37.178Z,21.98
2023-08-19T00:31:10.295Z,21.98
2023-08-19T00:31:43.302Z,21.97
2023-08-19T00:32:16.549Z,21.97
2023-08-19T00:32:49.181Z,21.96
2023-08-19T00:33:24.393Z,21.95
2023-08-19T00:33:56.877Z,21.95
2023-08-19T00:34:29.412Z,21.95
2023-08-19T00:35:01.950Z,21.94
2023-08-19T00:35:34.827Z,21.94
2023-08-19T00:36:07.342Z,21.93
2023-08-19T00:36:39.880Z,21.93
2023-08-19T00:37:12.403Z,21.92
2023-08-19T00:37:44.893Z,21.85
2023-08-19T00:38:17.380Z,21.80
2023-08-19T00:38:52.933Z,21.80
2023-08-19T00:39:25.493Z,21.79
2023-08-19T00:39:58.002Z,21.79
2023-08-19T00:40:30.497Z,21.79
2023-08-19T00:41:04.410Z,21.79
2023-08-19T00:41:37.013Z,21.78
2023-08-19T00:42:10.001Z,21.78
2023-08-19T00:42:42.709Z,21.78
2023-08-19T00:43:15.188Z,21.78
2023-08-19T00:43:47.682Z,21.78
2023-08-19T00:44:20.296Z,21.77
2023-08-19T00:44:53.984Z,21.77
2023-08-19T00:45:26.604Z,21.77
2023-08-19T00:45:59.472Z,21.77
2023-08-19T00:46:33.301Z,21.77
2023-08-19T00:47:06.109Z,21.76
2023-08-19T00:47:40.394Z,21.76
2023-08-19T00:48:17.719Z,21.76
2023-08-19T00:48:50.289Z,21.75
2023-08-19T00:49:22.873Z,21.75
2023-08-19T00:49:56.159Z,21.75
2023-08-19T00:50:28.893Z,21.75
2023-08-19T00:51:03.790Z,21.75
2023-08-19T00:51:36.390Z,21.75
2023-08-19T00:52:09.525Z,21.74
2023-08-19T00:52:43.228Z,21.74
2023-08-19T00:53:16.485Z,21.74
2023-08-19T00:53:49.471Z,21.73
2023-08-19T00:54:22.043Z,21.73
2023-08-19T00:54:54.573Z,21.73
2023-08-19T00:55:27.201Z,21.72
2023-08-19T00:56:00.031Z,21.72
2023-08-19T00:56:32.734Z,21.72
2023-08-19T00:57:05.486Z,21.72
2023-08-19T00:57:39.013Z,21.71
2023-08-19T00:58:12.701Z,21.71
2023-08-19T00:58:45.845Z,21.70
2023-08-19T00:59:18.598Z,21.70
2023-08-19T00:59:51.167Z,21.70
2023-08-19T01:00:23.833Z,21.69
2023-08-19T01:00:56.444Z,21.69
2023-08-19T01:01:29.043Z,21.69
2023-08-19T01:02:01.621Z,21.69
2023-08-19T01:02:34.252Z,21.69
2023-08-19T01:03:07.541Z,21.69
2023-08-19T01:03:40.421Z,21.68
2023-08-19T01:04:13.184Z,21.68
2023-08-19T01:04:46.014Z,21.68
2023-08-19T01:05:22.333Z,21.68
2023-08-19T01:06:09.870Z,21.67
2023-08-19T01:06:57.345Z,21.67
2023-08-19T01:07:38.738Z,21.67
2023-08-19T01:08:18.538Z,21.66
2023-08-19T01:09:05.277Z,21.66
2023-08-19T01:09:43.860Z,21.66
2023-08-19T01:10:36.362Z,21.65
2023-08-19T01:11:37.181Z,21.65
2023-08-19T01:12:47.705Z,21.64
2023-08-19T01:13:27.252Z,21.64
2023-08-19T01:14:16.420Z,21.64
2023-08-19T01:15:02.325Z,21.63
2023-08-19T01:15:42.765Z,21.63
2023-08-19T01:16:28.125Z,21.62
2023-08-19T01:17:05.046Z,21.62
2023-08-19T01:17:38.912Z,21.62
2023-08-19T01:18:12.678Z,21.61
2023-08-19T01:18:45.647Z,21.60
2023-08-19T01:19:29.204Z,21.60
2023-08-19T01:20:01.782Z,21.59
2023-08-19T01:20:36.051Z,21.58
2023-08-19T01:21:10.014Z,21.58
2023-08-19T01:21:42.564Z,21.58
2023-08-19T01:22:22.502Z,21.57
2023-08-19T01:23:01.952Z,21.57
2023-08-19T01:23:39.275Z,21.56
2023-08-19T01:24:12.851Z,21.55
2023-08-19T01:24:47.667Z,21.54
2023-08-19T01:25:21.331Z,21.53
2023-08-19T01:25:54.536Z,21.53
2023-08-19T01:26:27.097Z,21.52
2023-08-19T01:26:59.629Z,21.51
2023-08-19T01:27:32.378Z,21.51
2023-08-19T01:28:05.289Z,21.50
2023-08-19T01:28:37.786Z,21.50
2023-08-19T01:29:10.852Z,21.50
2023-08-19T01:29:43.365Z,21.49
2023-08-19T01:30:16.091Z,21.48
2023-08-19T01:30:48.628Z,21.47
2023-08-19T01:31:21.229Z,21.47
2023-08-19T01:31:54.190Z,21.46
2023-08-19T01:32:27.004Z,21.46
2023-08-19T01:32:59.578Z,21.45
2023-08-19T01:33:33.114Z,21.44
2023-08-19T01:34:05.766Z,21.44
2023-08-19T01:34:38.503Z,21.43
2023-08-19T01:35:15.498Z,21.43
2023-08-19T01:36:17.062Z,21.42
2023-08-19T01:36:56.797Z,21.40
2023-08-19T01:37:38.727Z,21.39
2023-08-19T01:38:30.543Z,21.38
2023-08-19T01:39:07.592Z,21.37
2023-08-19T01:39:44.012Z,21.36
2023-08-19T01:40:16.982Z,21.35
2023-08-19T01:40:51.605Z,21.34
2023-08-19T01:41:27.881Z,21.34
2023-08-19T01:42:00.802Z,21.33
2023-08-19T01:42:34.081Z,21.33
2023-08-19T01:43:11.669Z,21.32
2023-08-19T01:43:45.588Z,21.31
2023-08-19T01:44:19.032Z,21.30
2023-08-19T01:44:52.276Z,21.30
2023-08-19T01:45:25.150Z,21.29
2023-08-19T01:45:57.805Z,21.29
2023-08-19T01:46:30.642Z,21.28
2023-08-19T01:47:17.433Z,21.27
2023-08-19T01:47:57.422Z,21.27
2023-08-19T01:48:29.999Z,21.26
2023-08-19T01:49:02.647Z,21.26
2023-08-19T01:49:35.140Z,21.25
2023-08-19T01:50:09.147Z,21.25
2023-08-19T01:50:41.636Z,21.24
2023-08-19T01:51:14.166Z,21.24
2023-08-19T01:51:46.685Z,21.23
2023-08-19T01:52:20.236Z,21.23
2023-08-19T01:52:52.883Z,21.23
2023-08-19T01:53:25.459Z,21.23
2023-08-19T01:53:57.997Z,21.23
2023-08-19T01:54:30.500Z,21.23
2023-08-19T01:55:02.989Z,21.22
2023-08-19T01:55:35.496Z,21.21
2023-08-19T01:56:07.997Z,21.20
2023-08-19T01:56:40.667Z,21.20
2023-08-19T01:57:13.230Z,21.20
2023-08-19T01:57:45.780Z,21.20
2023-08-19T01:58:18.328Z,21.20
2023-08-19T01:58:50.840Z,21.20
2023-08-19T01:59:23.391Z,21.20
2023-08-19T01:59:56.297Z,21.20
2023-08-19T02:00:29.442Z,21.19
2023-08-19T02:01:01.979Z,21.19
2023-08-19T02:01:34.576Z,21.19
2023-08-19T02:02:07.139Z,21.19
2023-08-19T02:02:39.688Z,21.18
2023-08-19T02:03:12.247Z,21.17
2023-08-19T02:03:44.836Z,21.17
2023-08-19T02:04:18.616Z,21.17
2023-08-19T02:04:51.678Z,21.17
2023-08-19T02:05:24.260Z,21.16
2023-08-19T02:05:56.774Z,21.16
2023-08-19T02:06:30.956Z,21.16
2023-08-19T02:07:03.507Z,21.16
2023-08-19T02:07:36.020Z,21.16
2023-08-19T02:08:08.504Z,21.15
2023-08-19T02:08:40.993Z,21.15
2023-08-19T02:09:13.560Z,21.15
2023-08-19T02:09:46.873Z,21.14
2023-08-19T02:10:19.371Z,21.14
2023-08-19T02:10:51.912Z,21.14
2023-08-19T02:11:24.458Z,21.13
2023-08-19T02:11:57.758Z,21.13
2023-08-19T02:12:30.284Z,21.13
2023-08-19T02:13:03.696Z,21.13
2023-08-19T02:13:36.249Z,21.12
2023-08-19T02:14:09.673Z,21.12
2023-08-19T02:14:42.175Z,21.12
2023-08-19T02:15:15.687Z,21.12
2023-08-19T02:15:48.275Z,21.11
2023-08-19T02:16:20.827Z,21.11
2023-08-19T02:16:53.349Z,21.10
2023-08-19T02:17:25.885Z,21.10
2023-08-19T02:17:59.563Z,21.10
2023-08-19T02:18:32.358Z,21.10
2023-08-19T02:19:05.382Z,21.09
2023-08-19T02:19:37.893Z,21.09
2023-08-19T02:20:10.929Z,21.09
2023-08-19T02:20:47.623Z,21.08
2023-08-19T02:21:20.169Z,21.08
2023-08-19T02:21:53.096Z,21.08
2023-08-19T02:22:25.624Z,21.07
2023-08-19T02:23:00.373Z,21.07
2023-08-19T02:23:32.869Z,21.07
2023-08-19T02:24:05.757Z,21.07
2023-08-19T02:24:38.276Z,21.07
2023-08-19T02:25:10.903Z,21.06
2023-08-19T02:25:43.398Z,21.05
2023-08-19T02:26:15.877Z,21.05
2023-08-19T02:26:48.415Z,21.05
2023-08-19T02:27:20.928Z,21.04
2023-08-19T02:27:53.466Z,21.04
2023-08-19T02:28:25.997Z,21.03
2023-08-19T02:28:58.495Z,21.03
2023-08-19T02:29:31.015Z,21.03
2023-08-19T02:30:03.834Z,21.03
2023-08-19T02:30:36.352Z,21.03
2023-08-19T02:31:08.929Z,21.02
2023-08-19T02:31:42.042Z,21.02
2023-08-19T02:32:14.545Z,21.01
2023-08-19T02:32:47.083Z,21.01
2023-08-19T02:33:19.593Z,21.01
2023-08-19T02:33:52.151Z,21.01
2023-08-19T02:34:24.693Z,21.01
2023-08-19T02:34:57.189Z,21.01
2023-08-19T02:35:29.709Z,21.00
2023-08-19T02:36:02.350Z,21.00
2023-08-19T02:36:34.885Z,21.00
2023-08-19T02:37:07.436Z,21.00
2023-08-19T02:37:40.110Z,20.99
2023-08-19T02:38:12.656Z,20.99
2023-08-19T02:38:45.186Z,20.99
2023-08-19T02:39:17.747Z,20.99
2023-08-19T02:39:50.253Z,20.99
2023-08-19T02:40:22.804Z,20.99
2023-08-19T02:40:55.361Z,20.99
2023-08-19T02:41:27.843Z,20.98
2023-08-19T02:42:00.431Z,20.98
2023-08-19T02:42:33.002Z,20.98
2023-08-19T02:43:05.530Z,20.98
2023-08-19T02:43:38.055Z,20.98
2023-08-19T02:44:10.571Z,20.98
2023-08-19T02:44:44.428Z,20.98
2023-08-19T02:45:16.934Z,20.98
2023-08-19T02:45:49.877Z,20.98
2023-08-19T02:46:22.444Z,20.98
2023-08-19T02:46:55.038Z,20.98
2023-08-19T02:47:27.628Z,20.97
2023-08-19T02:48:00.184Z,20.97
2023-08-19T02:48:32.798Z,20.97
2023-08-19T02:49:05.420Z,20.97
2023-08-19T02:49:37.967Z,20.96
2023-08-19T02:50:10.775Z,20.95
2023-08-19T02:50:43.615Z,20.95
2023-08-19T02:51:16.151Z,20.95
2023-08-19T02:51:48.649Z,20.95
2023-08-19T02:52:21.166Z,20.95
2023-08-19T02:52:53.667Z,20.94
2023-08-19T02:53:26.198Z,20.94
2023-08-19T02:53:58.742Z,20.94
2023-08-19T02:54:31.225Z,20.93
2023-08-19T02:55:03.868Z,20.93
2023-08-19T02:55:42.096Z,20.93
2023-08-19T02:56:14.607Z,20.93
2023-08-19T02:56:47.122Z,20.92
2023-08-19T02:57:19.692Z,20.92
2023-08-19T02:57:52.222Z,20.92
2023-08-19T02:58:26.169Z,20.92
2023-08-19T02:58:58.695Z,20.92
2023-08-19T02:59:31.187Z,20.91
2023-08-19T03:00:03.970Z,20.91
2023-08-19T03:00:39.590Z,20.91
2023-08-19T03:01:14.566Z,20.91
2023-08-19T03:01:47.163Z,20.91
2023-08-19T03:02:19.896Z,20.90
2023-08-19T03:02:53.836Z,20.90
2023-08-19T03:03:28.561Z,20.90
2023-08-19T03:04:01.670Z,20.90
2023-08-19T03:04:34.216Z,20.90
2023-08-19T03:05:06.967Z,20.89
2023-08-19T03:05:40.288Z,20.89
2023-08-19T03:06:12.880Z,20.89
2023-08-19T03:06:45.480Z,20.89
2023-08-19T03:07:18.018Z,20.88
2023-08-19T03:07:50.552Z,20.88
2023-08-19T03:08:23.090Z,20.88
2023-08-19T03:08:55.582Z,20.88
2023-08-19T03:09:28.079Z,20.88
2023-08-19T03:10:00.575Z,20.88
2023-08-19T03:10:34.640Z,20.88
2023-08-19T03:11:07.182Z,20.88
2023-08-19T03:11:42.714Z,20.88
2023-08-19T03:12:15.442Z,20.89
2023-08-19T03:12:47.985Z,20.89
2023-08-19T03:13:20.539Z,20.89
2023-08-19T03:13:53.059Z,20.89
2023-08-19T03:14:25.581Z,20.89
2023-08-19T03:14:58.107Z,20.89
2023-08-19T03:15:31.957Z,20.89
2023-08-19T03:16:05.763Z,20.89
2023-08-19T03:16:38.331Z,20.90
2023-08-19T03:17:10.837Z,20.90
2023-08-19T03:17:43.592Z,20.90
2023-08-19T03:18:16.132Z,20.90
2023-08-19T03:18:48.660Z,20.91
2023-08-19T03:19:21.222Z,20.91
2023-08-19T03:19:53.862Z,20.91
2023-08-19T03:20:26.566Z,20.91
2023-08-19T03:21:00.192Z,20.91
2023-08-19T03:21:32.742Z,20.91
2023-08-19T03:22:05.294Z,20.91
2023-08-19T03:22:39.524Z,20.91
2023-08-19T03:23:12.084Z,20.91
2023-08-19T03:23:44.608Z,20.92
2023-08-19T03:24:17.177Z,20.92
2023-08-19T03:24:49.676Z,20.92
2023-08-19T03:25:22.211Z,20.92
2023-08-19T03:25:55.920Z,20.93
2023-08-19T03:26:28.448Z,20.93
2023-08-19T03:27:00.984Z,20.93
2023-08-19T03:27:33.727Z,20.93
2023-08-19T03:28:06.614Z,20.93
2023-08-19T03:28:39.131Z,20.93
2023-08-19T03:29:11.652Z,20.94
2023-08-19T03:29:44.152Z,20.94
2023-08-19T03:30:16.670Z,20.94
2023-08-19T03:30:49.342Z,20.94
2023-08-19T03:31:21.842Z,20.94
2023-08-19T03:31:54.342Z,20.94
2023-08-19T03:32:26.910Z,20.94
2023-08-19T03:32:59.486Z,20.94
2023-08-19T03:33:32.151Z,20.94
2023-08-19T03:34:04.716Z,20.94
2023-08-19T03:34:37.289Z,20.94
2023-08-19T03:35:10.070Z,20.94
2023-08-19T03:35:42.665Z,20.94
2023-08-19T03:36:15.151Z,20.94
2023-08-19T03:36:48.460Z,20.94
2023-08-19T03:37:20.991Z,20.94
2023-08-19T03:37:53.524Z,20.94
2023-08-19T03:38:26.024Z,20.94
2023-08-19T03:38:58.714Z,20.94
2023-08-19T03:39:31.232Z,20.93
2023-08-19T03:40:04.463Z,20.93
2023-08-19T03:40:37.583Z,20.93
2023-08-19T03:41:10.119Z,20.93
2023-08-19T03:41:42.651Z,20.92
2023-08-19T03:42:15.149Z,20.92
2023-08-19T03:42:47.674Z,20.92
2023-08-19T03:43:20.206Z,20.92
2023-08-19T03:43:52.808Z,20.92
2023-08-19T03:44:25.345Z,20.92
2023-08-19T03:44:57.914Z,20.92
2023-08-19T03:45:31.496Z,20.92
2023-08-19T03:46:04.125Z,20.91
2023-08-19T03:46:36.709Z,20.91
2023-08-19T03:47:13.540Z,20.91
2023-08-19T03:47:46.252Z,20.91
2023-08-19T03:48:18.821Z,20.90
2023-08-19T03:48:51.326Z,20.90
2023-08-19T03:49:23.816Z,20.90
2023-08-19T03:49:56.351Z,20.90
2023-08-19T03:50:28.862Z,20.90
2023-08-19T03:51:01.373Z,20.89
2023-08-19T03:51:33.911Z,20.89
2023-08-19T03:52:07.507Z,20.89
2023-08-19T03:52:40.065Z,20.88
2023-08-19T03:53:12.549Z,20.88
2023-08-19T03:53:45.082Z,20.88
2023-08-19T03:54:17.585Z,20.88
2023-08-19T03:54:50.134Z,20.88
2023-08-19T03:55:22.671Z,20.88
2023-08-19T03:55:55.237Z,20.87
2023-08-19T03:56:27.728Z,20.87
2023-08-19T03:57:00.858Z,20.87
2023-08-19T03:57:33.664Z,20.87
2023-08-19T03:58:06.396Z,20.87
2023-08-19T03:58:38.893Z,20.86
2023-08-19T03:59:11.429Z,20.86
2023-08-19T03:59:44.016Z,20.86
2023-08-19T04:00:16.575Z,20.86
2023-08-19T04:00:49.076Z,20.86
2023-08-19T04:01:21.638Z,20.85
2023-08-19T04:01:54.153Z,20.85
2023-08-19T04:02:26.810Z,20.85
2023-08-19T04:02:59.432Z,20.84
2023-08-19T04:03:31.970Z,20.84
2023-08-19T04:04:04.754Z,20.84
2023-08-19T04:04:37.512Z,20.84
2023-08-19T04:05:11.933Z,20.84
2023-08-19T04:05:44.467Z,20.84
2023-08-19T04:06:16.996Z,20.84
2023-08-19T04:06:49.607Z,20.84
2023-08-19T04:07:22.112Z,20.84
2023-08-19T04:07:54.609Z,20.84
2023-08-19T04:08:27.544Z,20.85
2023-08-19T04:09:00.259Z,20.85
2023-08-19T04:09:32.791Z,20.85
2023-08-19T04:10:05.692Z,20.86
2023-08-19T04:10:38.330Z,20.86
2023-08-19T04:11:10.870Z,20.86
2023-08-19T04:11:43.421Z,20.86
2023-08-19T04:12:16.925Z,20.87
2023-08-19T04:12:49.420Z,20.87
2023-08-19T04:13:22.020Z,20.88
2023-08-19T04:13:54.566Z,20.89
2023-08-19T04:14:27.078Z,20.90
2023-08-19T04:14:59.608Z,20.90
2023-08-19T04:15:33.172Z,20.90
2023-08-19T04:16:07.683Z,20.91
2023-08-19T04:16:40.447Z,20.91
2023-08-19T04:17:13.073Z,20.91
2023-08-19T04:17:45.709Z,20.91
2023-08-19T04:18:18.270Z,20.92
2023-08-19T04:18:51.711Z,20.93
2023-08-19T04:19:24.237Z,20.95
2023-08-19T04:19:56.772Z,20.95
2023-08-19T04:20:29.330Z,20.96
2023-08-19T04:21:05.950Z,20.98
2023-08-19T04:21:38.487Z,20.99
2023-08-19T04:22:15.675Z,21.00
2023-08-19T04:22:50.787Z,21.01
2023-08-19T04:23:23.433Z,21.02
2023-08-19T04:23:55.958Z,21.02
2023-08-19T04:24:28.921Z,21.03
2023-08-19T04:25:01.448Z,21.04
2023-08-19T04:25:34.014Z,21.04
2023-08-19T04:26:06.564Z,21.05
2023-08-19T04:26:39.602Z,21.07
2023-08-19T04:27:12.094Z,21.08
2023-08-19T04:27:44.630Z,21.09
2023-08-19T04:28:17.152Z,21.10
2023-08-19T04:28:49.777Z,21.11
2023-08-19T04:29:22.269Z,21.12
2023-08-19T04:29:54.799Z,21.13
2023-08-19T04:30:27.343Z,21.14
2023-08-19T04:31:08.214Z,21.14
2023-08-19T04:31:40.804Z,21.16
2023-08-19T04:32:14.369Z,21.17
2023-08-19T04:32:47.753Z,21.18
2023-08-19T04:33:20.399Z,21.20
2023-08-19T04:33:52.940Z,21.21
2023-08-19T04:34:25.595Z,21.23
2023-08-19T04:34:58.112Z,21.24
2023-08-19T04:35:30.608Z,21.25
2023-08-19T04:36:03.756Z,21.26
2023-08-19T04:36:36.278Z,21.27
2023-08-19T04:37:10.225Z,21.29
2023-08-19T04:37:42.885Z,21.31
2023-08-19T04:38:16.541Z,21.32
2023-08-19T04:38:49.101Z,21.34
2023-08-19T04:39:22.070Z,21.36
2023-08-19T04:39:54.912Z,21.37
2023-08-19T04:40:27.406Z,21.39
2023-08-19T04:41:01.346Z,21.41
2023-08-19T04:41:33.846Z,21.43
2023-08-19T04:42:06.515Z,21.43
2023-08-19T04:42:39.851Z,21.45
2023-08-19T04:43:12.660Z,21.46
2023-08-19T04:43:45.247Z,21.48
2023-08-19T04:44:18.256Z,21.49
2023-08-19T04:44:50.764Z,21.51
2023-08-19T04:45:23.294Z,21.52
2023-08-19T04:45:55.917Z,21.54
2023-08-19T04:46:28.472Z,21.56
2023-08-19T04:47:01.055Z,21.57
2023-08-19T04:47:34.996Z,21.58
2023-08-19T04:48:08.299Z,21.59
2023-08-19T04:48:40.844Z,21.61
2023-08-19T04:49:13.394Z,21.62
2023-08-19T04:49:45.904Z,21.64
2023-08-19T04:50:18.551Z,21.65
2023-08-19T04:50:51.050Z,21.67
2023-08-19T04:51:23.642Z,21.68
2023-08-19T04:51:56.177Z,21.70
2023-08-19T04:52:28.704Z,21.72
2023-08-19T04:53:01.236Z,21.74
2023-08-19T04:53:33.790Z,21.75
2023-08-19T04:54:06.649Z,21.76
2023-08-19T04:54:39.156Z,21.78
2023-08-19T04:55:11.695Z,21.79
2023-08-19T04:55:44.195Z,21.81
2023-08-19T04:56:18.371Z,21.82
2023-08-19T04:56:51.003Z,21.84
2023-08-19T04:57:23.490Z,21.85
2023-08-19T04:57:56.027Z,21.86
2023-08-19T04:58:28.532Z,21.88
2023-08-19T04:59:01.672Z,21.89
2023-08-19T04:59:34.220Z,21.90
2023-08-19T05:00:09.714Z,21.91
2023-08-19T05:00:42.244Z,21.92
2023-08-19T05:01:15.057Z,21.93
2023-08-19T05:01:47.652Z,21.94
2023-08-19T05:02:20.214Z,21.95
2023-08-19T05:02:52.794Z,21.96
2023-08-19T05:03:25.334Z,21.97
2023-08-19T05:03:57.885Z,21.98
2023-08-19T05:04:30.409Z,21.99
2023-08-19T05:05:04.554Z,22.00
2023-08-19T05:05:37.060Z,22.01
2023-08-19T05:06:09.599Z,22.02
2023-08-19T05:06:42.127Z,22.02
2023-08-19T05:07:14.671Z,22.03
2023-08-19T05:07:47.285Z,22.03
2023-08-19T05:08:19.787Z,22.04
2023-08-19T05:08:52.286Z,22.05
2023-08-19T05:09:24.813Z,22.06
2023-08-19T05:09:57.433Z,22.07
2023-08-19T05:10:29.919Z,22.08
2023-08-19T05:11:02.478Z,22.09
2023-08-19T05:11:34.980Z,22.10
2023-08-19T05:12:07.939Z,22.11
2023-08-19T05:12:40.827Z,22.12
2023-08-19T05:13:13.401Z,22.13
2023-08-19T05:13:45.939Z,22.14
2023-08-19T05:14:18.828Z,22.15
2023-08-19T05:14:51.357Z,22.16
2023-08-19T05:15:23.883Z,22.17
2023-08-19T05:15:56.381Z,22.18
2023-08-19T05:16:29.011Z,22.20
2023-08-19T05:17:01.640Z,22.21
2023-08-19T05:17:34.484Z,22.23
2023-08-19T05:18:07.278Z,22.24
2023-08-19T05:18:39.817Z,22.25
2023-08-19T05:19:20.656Z,22.27
2023-08-19T05:19:55.701Z,22.29
2023-08-19T05:20:28.504Z,22.31
2023-08-19T05:21:01.019Z,22.33
2023-08-19T05:21:33.561Z,22.36
2023-08-19T05:22:06.106Z,22.39
2023-08-19T05:22:38.645Z,22.41
2023-08-19T05:23:11.170Z,22.43
2023-08-19T05:23:43.713Z,22.45
2023-08-19T05:24:16.872Z,22.48
2023-08-19T05:24:50.510Z,22.50
2023-08-19T05:25:23.037Z,22.53
2023-08-19T05:25:55.572Z,22.56
2023-08-19T05:26:28.123Z,22.58
2023-08-19T05:27:01.461Z,22.61
2023-08-19T05:27:34.216Z,22.64
2023-08-19T05:28:07.099Z,22.67
2023-08-19T05:28:39.681Z,22.70
2023-08-19T05:29:13.383Z,22.74
2023-08-19T05:29:45.874Z,22.77
2023-08-19T05:30:18.361Z,22.79
2023-08-19T05:30:50.889Z,22.82
2023-08-19T05:31:23.450Z,22.85
2023-08-19T05:31:56.834Z,22.89
2023-08-19T05:32:29.333Z,22.92
2023-08-19T05:33:01.921Z,22.95
2023-08-19T05:33:34.466Z,22.97
2023-08-19T05:34:10.069Z,23.00
2023-08-19T05:34:42.581Z,23.03
2023-08-19T05:35:15.294Z,23.05
2023-08-19T05:35:47.877Z,23.07
2023-08-19T05:36:20.421Z,23.10
2023-08-19T05:36:52.937Z,23.11
2023-08-19T05:37:25.487Z,23.12
2023-08-19T05:37:57.994Z,23.14
2023-08-19T05:38:30.522Z,23.15
2023-08-19T05:39:03.421Z,23.15
2023-08-19T05:39:35.920Z,23.16
2023-08-19T05:40:08.945Z,23.16
2023-08-19T05:40:41.487Z,23.16
2023-08-19T05:41:14.020Z,23.16
2023-08-19T05:41:46.552Z,23.17
2023-08-19T05:42:19.401Z,23.17
2023-08-19T05:42:51.951Z,23.18
2023-08-19T05:43:24.505Z,23.18
2023-08-19T05:43:57.120Z,23.18
2023-08-19T05:44:29.610Z,23.18
2023-08-19T05:45:02.138Z,23.16
2023-08-19T05:45:35.056Z,23.16
2023-08-19T05:46:08.698Z,23.15
2023-08-19T05:46:41.368Z,23.14
2023-08-19T05:47:13.920Z,23.13
2023-08-19T05:47:46.419Z,23.11
2023-08-19T05:48:18.910Z,23.10
2023-08-19T05:48:51.418Z,23.09
2023-08-19T05:49:24.062Z,23.07
2023-08-19T05:49:56.573Z,23.06
2023-08-19T05:50:29.197Z,23.05
2023-08-19T05:51:02.302Z,23.04
2023-08-19T05:51:35.404Z,23.03
2023-08-19T05:52:07.984Z,23.01
2023-08-19T05:52:40.572Z,23.00
2023-08-19T05:53:13.122Z,22.99
2023-08-19T05:53:45.666Z,22.98
2023-08-19T05:54:18.154Z,22.97
2023-08-19T05:54:51.363Z,22.96
2023-08-19T05:55:23.862Z,22.95
2023-08-19T05:55:56.386Z,22.94
2023-08-19T05:56:28.910Z,22.93
2023-08-19T05:57:01.436Z,22.92
2023-08-19T05:57:34.364Z,22.91
2023-08-19T05:58:07.333Z,22.89
2023-08-19T05:58:39.854Z,22.88
2023-08-19T05:59:12.370Z,22.87
2023-08-19T05:59:45.031Z,22.86
2023-08-19T06:00:17.754Z,22.85
2023-08-19T06:00:57.863Z,22.84
2023-08-19T06:01:30.499Z,22.83
2023-08-19T06:02:03.215Z,22.82
2023-08-19T06:02:35.762Z,22.81
2023-08-19T06:03:08.330Z,22.80
2023-08-19T06:03:40.960Z,22.79
2023-08-19T06:04:13.511Z,22.78
2023-08-19T06:04:46.021Z,22.78
2023-08-19T06:05:18.554Z,22.77
2023-08-19T06:05:51.141Z,22.76
2023-08-19T06:06:23.670Z,22.74
2023-08-19T06:06:56.162Z,22.73
2023-08-19T06:07:28.685Z,22.72
2023-08-19T06:08:01.177Z,22.71
2023-08-19T06:08:34.703Z,22.70
2023-08-19T06:09:07.206Z,22.70
2023-08-19T06:09:39.702Z,22.69
2023-08-19T06:10:12.244Z,22.68
2023-08-19T06:10:47.813Z,22.68
2023-08-19T06:11:20.301Z,22.67
2023-08-19T06:11:53.923Z,22.66
2023-08-19T06:12:26.414Z,22.65
2023-08-19T06:12:58.976Z,22.65
2023-08-19T06:13:31.626Z,22.64
2023-08-19T06:14:04.296Z,22.64
2023-08-19T06:14:36.817Z,22.63
2023-08-19T06:15:09.669Z,22.62
2023-08-19T06:15:42.194Z,22.61
2023-08-19T06:16:14.781Z,22.61
2023-08-19T06:16:48.075Z,22.60
2023-08-19T06:17:20.571Z,22.59
2023-08-19T06:17:53.080Z,22.58
2023-08-19T06:18:26.218Z,22.58
2023-08-19T06:18:58.799Z,22.57
2023-08-19T06:19:31.294Z,22.56
2023-08-19T06:20:04.209Z,22.55
2023-08-19T06:20:36.754Z,22.54
2023-08-19T06:21:09.291Z,22.53
2023-08-19T06:21:41.872Z,22.52
2023-08-19T06:22:14.404Z,22.50
2023-08-19T06:22:46.938Z,22.49
2023-08-19T06:23:20.490Z,22.49
2023-08-19T06:23:52.980Z,22.47
2023-08-19T06:24:25.506Z,22.46
2023-08-19T06:24:58.045Z,22.43
2023-08-19T06:25:32.803Z,22.43
2023-08-19T06:26:06.402Z,22.42
2023-08-19T06:26:38.897Z,22.41
2023-08-19T06:27:11.398Z,22.39
2023-08-19T06:27:43.912Z,22.38
2023-08-19T06:28:17.092Z,22.38
2023-08-19T06:28:50.412Z,22.36
2023-08-19T06:29:22.882Z,22.35
2023-08-19T06:29:55.393Z,22.34
2023-08-19T06:30:27.864Z,22.34
2023-08-19T06:31:00.379Z,22.33
2023-08-19T06:31:33.221Z,22.32
2023-08-19T06:32:06.139Z,22.30
2023-08-19T06:32:38.874Z,22.30
2023-08-19T06:33:12.391Z,22.29
2023-08-19T06:33:45.490Z,22.28
2023-08-19T06:34:18.133Z,22.27
2023-08-19T06:34:50.790Z,22.27
2023-08-19T06:35:23.449Z,22.25
2023-08-19T06:35:58.811Z,22.24
2023-08-19T06:36:34.744Z,22.22
2023-08-19T06:37:12.093Z,22.21
2023-08-19T06:37:49.808Z,22.20
2023-08-19T06:38:27.533Z,22.19
2023-08-19T06:39:07.845Z,22.18
2023-08-19T06:39:46.736Z,22.17
2023-08-19T06:40:22.027Z,22.16
2023-08-19T06:41:07.909Z,22.14
2023-08-19T06:41:42.556Z,22.09
2023-08-19T06:42:17.963Z,22.05
2023-08-19T06:42:51.001Z,22.00
2023-08-19T06:43:27.802Z,21.96
2023-08-19T06:44:02.688Z,21.89
2023-08-19T06:44:38.373Z,21.81
2023-08-19T06:45:11.298Z,21.73
2023-08-19T06:45:44.378Z,21.65
2023-08-19T06:46:17.452Z,21.57
2023-08-19T06:46:51.296Z,21.47
2023-08-19T06:47:25.153Z,21.38
2023-08-19T06:47:59.280Z,21.31
2023-08-19T06:48:33.349Z,21.23
2023-08-19T06:49:06.148Z,21.18
2023-08-19T06:49:38.936Z,21.13
2023-08-19T06:50:12.492Z,21.08
2023-08-19T06:50:45.288Z,21.04
2023-08-19T06:51:18.008Z,21.00
2023-08-19T06:51:50.790Z,20.96
2023-08-19T06:52:24.019Z,20.92
2023-08-19T06:52:57.401Z,20.86
2023-08-19T06:53:30.720Z,20.81
2023-08-19T06:54:03.476Z,20.75
2023-08-19T06:54:36.268Z,20.70
2023-08-19T06:55:09.497Z,20.66
2023-08-19T06:56:06.572Z,20.63
2023-08-19T06:56:50.761Z,20.57
2023-08-19T06:57:30.397Z,20.53
2023-08-19T06:58:07.441Z,20.50
2023-08-19T06:58:44.959Z,20.47
2023-08-19T06:59:28.132Z,20.44
2023-08-19T07:00:13.380Z,20.42
2023-08-19T07:00:50.559Z,20.40
2023-08-19T07:01:31.326Z,20.39
2023-08-19T07:02:05.572Z,20.36
2023-08-19T07:02:39.439Z,20.35
2023-08-19T07:03:15.323Z,20.33
2023-08-19T07:03:48.418Z,20.32
2023-08-19T07:04:24.157Z,20.30
2023-08-19T07:05:00.532Z,20.28
2023-08-19T07:05:35.696Z,20.27
2023-08-19T07:06:08.908Z,20.25
2023-08-19T07:06:42.833Z,20.24
2023-08-19T07:07:22.652Z,20.22
2023-08-19T07:07:58.896Z,20.20
2023-08-19T07:08:34.590Z,20.18
2023-08-19T07:09:09.928Z,20.16
2023-08-19T07:09:42.652Z,20.14
2023-08-19T07:10:20.980Z,20.12
2023-08-19T07:10:53.792Z,20.10
2023-08-19T07:11:26.453Z,20.08
2023-08-19T07:11:59.655Z,20.07
2023-08-19T07:12:33.620Z,20.05